Moapa Valley, Nevada Weather observations

Data are for 10 minute period ending at time listed.
 Day   Time   Solar   Ave.   Ave.  Ave.  Vector  Max.   Baro.   Total    
  of    of     Rad.   Air    Rel.  Wind   Wind   Wind  Press.  Precip.   
Year   Day            Temp.  Hum.  Speed  Dir.   Gust                    
2015   (PST)  Kw/m2    F      %     mph   deg.    mph    mb.     in.     
-------------------------------------------------------------------------
  87    8:30   0.67   70.2    27    4.8   317     7.4   971.9    0.00 
  87    8:40   0.70   71.2    25    4.4   306     6.7   971.9    0.00 
  87    8:50   0.74   72.1    26    3.8   280     6.7   971.8    0.00 
  87    9:00   0.77   73.0    25    3.9   290     6.7   971.9    0.00 
  87    9:10   0.80   74.0    25    3.2   275     5.6   971.8    0.00 
  87    9:20   0.83   74.5    26    4.1   273     7.1   971.8    0.00 
  87    9:30   0.86   75.2    23    3.4   300     6.7   971.7    0.00 
  87    9:40   0.89   76.2    22    2.6   265     5.3   971.6    0.00 
  87    9:50   0.92   77.5    23    2.0   239     4.6   971.5    0.00 
  87   10:00   0.94   78.1    22    2.4   272     4.2   971.4    0.00 
  87   10:10   0.96   79.1    22    1.9   173     3.8   971.3    0.00 
  87   10:20   0.98   79.1    23    1.9   137     2.8   971.3    0.00 
  87   10:30   0.99   79.1    22    2.7   119     4.6   971.2    0.00 
  87   10:40   1.01   79.9    22    2.2   116     4.6   971.1    0.00 
  87   10:50   1.02   80.7    20    2.0   168     3.5   971.0    0.00 
  87   11:00   1.03   82.0    17    1.6    63     3.1   970.7    0.00 
  87   11:10   1.04   82.9    19    2.2   161     3.5   970.5    0.00 
  87   11:20   1.04   82.4    19    3.1   244     6.3   970.4    0.00 
  87   11:30   1.05   82.7    20    2.9   159     4.2   970.3    0.00 
  87   11:40   1.05   82.6    22    3.5   162     6.3   970.2    0.00 
  87   11:50   1.05   82.8    20    3.9   124     7.4   970.0    0.00 
  87   12:00   1.05   83.2    21    3.7   148     7.1   969.8    0.00 
  87   12:10   1.05   84.7    18    2.5   213     4.6   969.6    0.00 
  87   12:20   1.04   85.8    19    2.3   213     4.6   969.4    0.00 
  87   12:30   1.03   85.7    17    3.5    92     7.8   969.1    0.00 
  87   12:40   1.02   86.0    18    3.0   135     6.7   968.9    0.00 
  87   12:50   1.00   85.4    18    4.1   122     8.5   968.7    0.00 
  87   13:00   0.99   85.1    19    4.0   149     7.8   968.5    0.00 
  87   13:10   0.97   86.8    18    3.0   151     7.4   968.4    0.00 
  87   13:20   0.95   86.2    19    3.2   180     6.3   968.2    0.00 
  87   13:30   0.93   86.7    21    3.4   143     7.1   968.0    0.00 
  87   13:40   0.91   86.6    18    3.1   112     6.7   967.8    0.00 
  87   13:50   0.88   86.8    20    4.0   151     8.8   967.5    0.00 
  87   14:00   0.85   86.1    21    4.8   136     8.1   967.4    0.00 
  87   14:10   0.83   86.4    20    4.6   104     8.8   967.3    0.00 
  87   14:20   0.80   87.2    19    3.5   116     5.6   967.1    0.00 
  87   14:30   0.76   86.9    19    3.8   134     7.1   966.9    0.00 
  87   14:40   0.73   87.2    20    4.5   112     6.7   966.8    0.00 
  87   14:50   0.69   87.1    19    3.8   119     6.7   966.8    0.00 
  87   15:00   0.66   87.2    21    4.1   113     7.8   966.7    0.00 
  87   15:10   0.62   87.1    19    3.6   110     5.6   966.5    0.00 
  87   15:20   0.58   88.5    15    3.4    78     4.9   966.4    0.00 
  87   15:30   0.54   88.5    16    3.6   122     8.5   966.4    0.00 
  87   15:40   0.50   88.6    17    2.6   102     5.3   966.3    0.00 
  87   15:50   0.46   88.2    17    4.1   116     6.0   966.3    0.00 
  87   16:00   0.42   86.6    20    3.6   124     6.7   966.3    0.00 
  87   16:10   0.37   87.6    17    2.9   105     5.3   966.3    0.00 
  87   16:20   0.33   87.4    18    3.1   102     5.6   966.3    0.00 
  87   16:30   0.29   86.6    18    3.6   116     7.1   966.3    0.00 
  87   16:40   0.25   88.4    14    2.6    78     4.6   966.2    0.00 
  87   16:50   0.21   87.9    15    2.4    95     4.6   966.2    0.00 
  87   17:00   0.17   87.1    16    2.8   120     4.6   966.2    0.00 
  87   17:10   0.14   87.3    14    2.4   141     3.5   966.2    0.00 
  87   17:20   0.11   87.3    13    2.0   138     2.4   966.1    0.00 
  87   17:30   0.07   85.4    15    1.3   154     1.7   966.1    0.00 
  87   17:40   0.04   84.0    17    0.6   182     1.7   966.1    0.00 
  87   17:50   0.01   82.0    18    0.6   293     2.1   966.1    0.00 
  87   18:00   0.01   77.4    26    1.3   255     1.7   966.1    0.00 
  87   18:10   0.00   73.8    27    1.2   294     2.8   966.1    0.00 
  87   18:20   0.00   71.6    28    0.4   344     1.7   966.2    0.00 
  87   18:30   0.00   71.4    26    1.3   354     2.1   966.3    0.00 
  87   18:40   0.00   71.4    27    1.8   301     2.8   966.3    0.00 
  87   18:50   0.00   69.3    28    1.6   298     2.1   966.4    0.00 
  87   19:00   0.00   68.1    30    1.6   312     2.1   966.5    0.00 
  87   19:10   0.00   66.8    31    1.6   328     2.1   966.5    0.00 
  87   19:20   0.00   66.2    33    1.7   334     2.4   966.6    0.00 
  87   19:30   0.00   65.6    33    2.5   328     3.5   966.7    0.00 
  87   19:40   0.00   64.5    35    1.8   322     2.8   966.7    0.00 
  87   19:50   0.00   64.8    31    2.3   336     2.8   966.9    0.00 
  87   20:00   0.00   63.8    32    1.6   331     2.4   967.0    0.00 
  87   20:10   0.00   62.5    38    1.3   249     2.4   967.0    0.00 
  87   20:20   0.00   61.1    40    1.6   335     2.8   966.9    0.00 
  87   20:30   0.00   60.9    39    1.9    21     2.8   967.0    0.00 
  87   20:40   0.00   60.1    39    2.4   348     3.1   967.0    0.00 
  87   20:50   0.00   61.4    36    2.5   299     3.8   967.2    0.00 
  87   21:00   0.00   61.3    40    2.9   297     4.6   967.3    0.00 
  87   21:10   0.00   60.5    39    2.3   331     3.5   967.3    0.00 
  87   21:20   0.00   62.6    33    3.2   341     3.8   967.5    0.00 
  87   21:30   0.00   63.4    32    3.2   302     4.2   967.6    0.00 
  87   21:40   0.00   62.4    34    2.6   292     3.8   967.7    0.00 
  87   21:50   0.00   62.7    32    3.0   286     4.9   967.7    0.00 
  87   22:00   0.00   62.4    35    3.1   281     4.6   967.9    0.00 
  87   22:10   0.00   61.9    32    3.6   283     4.6   968.1    0.00 
  87   22:20   0.00   63.2    32    3.5   287     4.6   968.1    0.00 
  87   22:30   0.00   59.4    38    2.5   358     3.8   968.2    0.00 
  87   22:40   0.00   59.2    38    2.1   320     3.8   968.3    0.00 
  87   22:50   0.00   58.0    42    0.7   256     2.1   968.3    0.00 
  87   23:00   0.00   57.8    40    2.8   269     4.9   968.4    0.00 
  87   23:10   0.00   59.1    36    3.1   306     4.6   968.4    0.00 
  87   23:20   0.00   58.8    39    2.1   343     3.5   968.5    0.00 
  87   23:30   0.00   57.9    40    2.2   358     3.1   968.6    0.00 
  87   23:40   0.00   57.1    40    1.0   347     1.7   968.7    0.00 
  87   23:50   0.00   57.7    39    1.8     1     2.8   968.7    0.00 
  88    0:00   0.00   58.2    37    2.6   351     3.8   968.7    0.00 
  88    0:10   0.00   57.3    42    1.3   289     2.8   968.7    0.00 
  88    0:20   0.00   54.7    49    0.4   249     2.4   968.7    0.00 
  88    0:30   0.00   54.1    44    2.6   297     3.8   968.7    0.00 
  88    0:40   0.00   54.6    42    2.2   312     3.5   968.7    0.00 
  88    0:50   0.00   53.2    50    0.5   212     1.7   968.7    0.00 
  88    1:00   0.00   52.6    49    2.0   309     2.8   968.7    0.00 
  88    1:10   0.00   51.1    53    1.5    12     2.8   968.6    0.00 
  88    1:20   0.00   52.3    50    1.4     6     2.1   968.7    0.00 
  88    1:30   0.00   52.7    50    1.5   264     3.1   968.6    0.00 
  88    1:40   0.00   51.7    51    2.0   258     2.8   968.6    0.00 
  88    1:50   0.00   50.9    50    2.8   304     4.6   968.7    0.00 
  88    2:00   0.00   51.4    52    3.0   269     5.3   968.8    0.00 
  88    2:10   0.00   52.8    50    3.6   288     4.9   968.9    0.00 
  88    2:20   0.00   54.4    49    3.4   305     6.3   969.0    0.00 
  88    2:30   0.00   56.7    42    4.5   309     7.1   969.1    0.00 
  88    2:40   0.00   58.7    38    5.0   302     6.3   969.2    0.00 
  88    2:50   0.00   59.7    35    5.0   297     7.4   969.2    0.00 
  88    3:00   0.00   57.3    39    4.1   325     6.3   969.2    0.00 
  88    3:10   0.00   58.0    37    4.5   325     6.0   969.3    0.00 
  88    3:20   0.00   58.8    35    5.1   322     7.1   969.3    0.00 
  88    3:30   0.00   58.5    35    4.2   320     6.0   969.4    0.00 
  88    3:40   0.00   56.7    40    2.3   320     3.5   969.5    0.00 
  88    3:50   0.00   54.2    45    2.3   299     3.1   969.6    0.00 
  88    4:00   0.00   55.3    40    2.8   326     4.2   969.6    0.00 
  88    4:10   0.00   53.5    46    2.5   314     3.8   969.6    0.00 
  88    4:20   0.00   54.0    44    3.3   281     4.2   969.7    0.00 
  88    4:30   0.00   55.6    40    4.5   285     5.3   969.8    0.00 
  88    4:40   0.00   55.7    40    4.0   283     4.9   969.9    0.00 
  88    4:50   0.00   54.9    42    3.2   275     4.6   970.1    0.00 
  88    5:00   0.00   53.7    45    2.6   272     3.8   970.2    0.00 
  88    5:10   0.00   53.0    46    2.3   310     3.5   970.2    0.00 
  88    5:20   0.00   52.2    48    2.9   288     3.8   970.3    0.00 
  88    5:30   0.00   52.3    47    3.2   266     4.2   970.4    0.00 
  88    5:40   0.01   51.5    50    2.8   285     4.2   970.6    0.00 
  88    5:50   0.03   51.5    48    3.0   298     4.2   970.8    0.00 
  88    6:00   0.07   53.5    43    2.6   293     3.5   971.0    0.00 
  88    6:10   0.10   55.5    42    2.7   295     3.5   971.2    0.00 
  88    6:20   0.14   56.1    44    2.9   290     4.6   971.3    0.00 
  88    6:30   0.17   57.0    44    3.1   276     4.2   971.3    0.00 
  88    6:40   0.21   58.7    44    3.4   276     4.9   971.4    0.00 
  88    6:50   0.26   60.9    39    3.6   275     4.9   971.5    0.00 
  88    7:00   0.30   63.5    34    3.7   269     4.9   971.6    0.00 
  88    7:10   0.34   65.0    34    3.9   281     5.3   971.6    0.00 
  88    7:20   0.38   66.1    34    4.3   299     6.0   971.6    0.00 
  88    7:30   0.43   66.6    35    5.0   300     6.7   971.6    0.00 
  88    7:40   0.47   68.3    34    3.8   306     5.6   971.7    0.00 
  88    7:50   0.51   71.3    27    4.2   330     7.4   971.7    0.00 
  88    8:00   0.56   73.8    20    6.2   346     8.1   971.7    0.00 
  88    8:10   0.52   74.4    19    5.8   341     8.1   971.7    0.00 
  88    8:20   0.57   74.9    19    6.2   336     8.8   971.8    0.00 

Return to Moapa Valley graphs page.


Western Regional Climate Center,wrcc@dri.edu